Argonne, Wisconsin
Current Conditions -  °F | °C
As of 4:55 AM on Friday 31 Oct 2014 (Local Time) from KEGV Reporting Station
Light Snow Light Snow  
Wind Chill: 17°   Ceiling: 1800
Heat Index: 27°   Visibility: 3mi
Dew Point: 22°   Wind: 12mph
Humidity: 81%   Direction: 350°N
Pressure: 30.25"   Gusts: 20mph
Location:  45.66°N, 88.88°W
Report Text: KEGV 310955Z AUTO 35010G17KT 3SM -SN BKN018 BKN023 BKN029 M03/M05 A3025 RMK AO2 T10261054
Loading
Personal Weather Stations






























Interactive Weather Map
Tropical Storm Tracking
New forecast layout! Learn more

10-Day Weather Forecast

Advertisements
Track Severe Weather on mobile